KAY319 KMIA-KASE
Flight info
| Callsign | KAY319 |
|---|---|
| Flight time | N/A |
| Altitude | 36000 |
| Route | HURCN4 SMELZ Q116 JAWJA MGM UJM/N0456F380 RZC GCK PUB RODDY KANON HAREI DBL |
| Aircraft | A319/M-SDE3FGHIRWY/LB1 |
Departure
| Time | 2026-04-30 22:15 |
|---|---|
| Airport | Miami International Airport (KMIA) |
Arrival
| Time | N/A |
|---|---|
| Airport | Aspen-Pitkin County Airport (Sardy Field) (KASE) |
| Time | Latitude | Longitude | Altitude | Speed | Heading |
|---|---|---|---|---|---|
| 2026-04-30 21:32 | 25.80530 | -80.29020 | 14 ft | 0 kts | 176° |
| 2026-04-30 21:50 | 25.80529 | -80.29020 | 14 ft | 2 kts | 176° |
| 2026-04-30 21:50 | 25.80484 | -80.29016 | 14 ft | 7 kts | 176° |
| 2026-04-30 21:51 | 25.80451 | -80.29038 | 16 ft | 5 kts | 255° |
| 2026-04-30 21:51 | 25.80446 | -80.29083 | 15 ft | 6 kts | 264° |
| 2026-04-30 21:51 | 25.80443 | -80.29118 | 16 ft | 4 kts | 264° |
| 2026-04-30 21:51 | 25.80441 | -80.29140 | 16 ft | 3 kts | 265° |
| 2026-04-30 21:52 | 25.80439 | -80.29170 | 18 ft | 5 kts | 266° |
| 2026-04-30 21:52 | 25.80437 | -80.29220 | 18 ft | 8 kts | 267° |
| 2026-04-30 21:52 | 25.80434 | -80.29295 | 18 ft | 12 kts | 269° |
| 2026-04-30 21:52 | 25.80433 | -80.29402 | 17 ft | 16 kts | 269° |
| 2026-04-30 21:53 | 25.80428 | -80.29529 | 17 ft | 19 kts | 266° |
| 2026-04-30 21:53 | 25.80418 | -80.29686 | 19 ft | 21 kts | 266° |
| 2026-04-30 21:53 | 25.80412 | -80.29861 | 18 ft | 25 kts | 268° |
| 2026-04-30 21:53 | 25.80405 | -80.30062 | 17 ft | 25 kts | 267° |
| 2026-04-30 21:54 | 25.80377 | -80.30146 | 19 ft | 0 kts | 202° |
| 2026-04-30 22:10 | 25.80372 | -80.30147 | 19 ft | 2 kts | 193° |
| 2026-04-30 22:10 | 25.80293 | -80.30142 | 16 ft | 19 kts | 176° |
| 2026-04-30 22:11 | 25.80070 | -80.30102 | 14 ft | 8 kts | 90° |
| 2026-04-30 22:11 | 25.80071 | -80.30095 | 14 ft | 0 kts | 82° |
| 2026-04-30 22:13 | 25.80072 | -80.30092 | 14 ft | 0 kts | 84° |
| 2026-04-30 22:14 | 25.80072 | -80.30084 | 14 ft | 4 kts | 84° |
| 2026-04-30 22:14 | 25.80085 | -80.29861 | 13 ft | 63 kts | 87° |
| 2026-04-30 22:14 | 25.80110 | -80.29128 | 21 ft | 121 kts | 88° |
| 2026-04-30 22:14 | 25.80159 | -80.28024 | 18 ft | 167 kts | 86° |
| 2026-04-30 22:15 | 25.80235 | -80.26710 | 477 ft | 168 kts | 85° |
| 2026-04-30 22:15 | 25.80342 | -80.25385 | 950 ft | 177 kts | 87° |
| 2026-04-30 22:15 | 25.80435 | -80.23996 | 1412 ft | 184 kts | 87° |
| 2026-04-30 22:15 | 25.80529 | -80.22550 | 1896 ft | 191 kts | 87° |
| 2026-04-30 22:16 | 25.80602 | -80.21061 | 2416 ft | 197 kts | 88° |
| 2026-04-30 22:16 | 25.80661 | -80.19466 | 2668 ft | 219 kts | 89° |
| 2026-04-30 22:17 | 25.83365 | -80.15200 | 3988 ft | 274 kts | 8° |
| 2026-04-30 22:17 | 25.85286 | -80.15087 | 4859 ft | 276 kts | 357° |
| 2026-04-30 22:17 | 25.89115 | -80.15455 | 6562 ft | 280 kts | 346° |
| 2026-04-30 22:18 | 25.90981 | -80.16175 | 7398 ft | 282 kts | 335° |
| 2026-04-30 22:18 | 25.94688 | -80.17654 | 8872 ft | 289 kts | 341° |
| 2026-04-30 22:19 | 25.98212 | -80.19518 | 10207 ft | 294 kts | 318° |
| 2026-04-30 22:19 | 25.99608 | -80.21305 | 10603 ft | 310 kts | 300° |
| 2026-04-30 22:19 | 26.01152 | -80.25391 | 10866 ft | 347 kts | 291° |
| 2026-04-30 22:20 | 26.02061 | -80.27961 | 11008 ft | 366 kts | 291° |
| 2026-04-30 22:20 | 26.03982 | -80.33305 | 12089 ft | 376 kts | 292° |
| 2026-04-30 22:20 | 26.04415 | -80.34499 | 12367 ft | 377 kts | 292° |
| 2026-04-30 22:21 | 26.05428 | -80.37291 | 12997 ft | 380 kts | 292° |
| 2026-04-30 22:21 | 26.06435 | -80.40064 | 13629 ft | 382 kts | 292° |
| 2026-04-30 22:21 | 26.07429 | -80.42810 | 14212 ft | 385 kts | 292° |
| 2026-04-30 22:21 | 26.08435 | -80.45593 | 14796 ft | 388 kts | 292° |
| 2026-04-30 22:22 | 26.09445 | -80.48398 | 15349 ft | 391 kts | 291° |
| 2026-04-30 22:22 | 26.10454 | -80.51209 | 15897 ft | 394 kts | 291° |
| 2026-04-30 22:22 | 26.11481 | -80.53930 | 16425 ft | 397 kts | 296° |
| 2026-04-30 22:22 | 26.12991 | -80.56632 | 16979 ft | 400 kts | 307° |
| 2026-04-30 22:23 | 26.14886 | -80.58902 | 17504 ft | 404 kts | 317° |
| 2026-04-30 22:23 | 26.17165 | -80.60766 | 18002 ft | 408 kts | 328° |
| 2026-04-30 22:23 | 26.19725 | -80.62149 | 18499 ft | 411 kts | 336° |
| 2026-04-30 22:23 | 26.22372 | -80.63400 | 18959 ft | 415 kts | 335° |
| 2026-04-30 22:24 | 26.25038 | -80.64672 | 19398 ft | 418 kts | 335° |
| 2026-04-30 22:24 | 26.27710 | -80.65953 | 19813 ft | 421 kts | 335° |
| 2026-04-30 22:24 | 26.30402 | -80.67246 | 20212 ft | 423 kts | 335° |
| 2026-04-30 22:24 | 26.33115 | -80.68551 | 20601 ft | 426 kts | 335° |
| 2026-04-30 22:25 | 26.35844 | -80.69866 | 20964 ft | 428 kts | 335° |
| 2026-04-30 22:25 | 26.38548 | -80.71297 | 21306 ft | 430 kts | 329° |
| 2026-04-30 22:25 | 26.41016 | -80.73164 | 21647 ft | 431 kts | 320° |
| 2026-04-30 22:25 | 26.43180 | -80.75456 | 21964 ft | 433 kts | 311° |
| 2026-04-30 22:26 | 26.47265 | -80.80425 | 22595 ft | 437 kts | 311° |
| 2026-04-30 22:26 | 26.49337 | -80.82937 | 22888 ft | 440 kts | 312° |
| 2026-04-30 22:26 | 26.51416 | -80.85452 | 23184 ft | 442 kts | 312° |
| 2026-04-30 22:27 | 26.53509 | -80.87981 | 23458 ft | 444 kts | 312° |
| 2026-04-30 22:27 | 26.55607 | -80.90521 | 23725 ft | 446 kts | 312° |
| 2026-04-30 22:27 | 26.59828 | -80.95636 | 24206 ft | 449 kts | 312° |
| 2026-04-30 22:28 | 26.64082 | -81.00802 | 24707 ft | 452 kts | 312° |
| 2026-04-30 22:28 | 26.66211 | -81.03391 | 24949 ft | 454 kts | 312° |
| 2026-04-30 22:29 | 26.72644 | -81.11213 | 25653 ft | 458 kts | 312° |
| 2026-04-30 22:29 | 26.74810 | -81.13842 | 25888 ft | 459 kts | 312° |
| 2026-04-30 22:30 | 26.83496 | -81.24440 | 26813 ft | 464 kts | 311° |
| 2026-04-30 22:31 | 26.90054 | -81.32458 | 27626 ft | 464 kts | 311° |
| 2026-04-30 22:32 | 26.96568 | -81.40427 | 28644 ft | 460 kts | 311° |
| 2026-04-30 22:32 | 27.00071 | -81.44726 | 29195 ft | 459 kts | 311° |
| 2026-04-30 22:33 | 27.06938 | -81.52218 | 30239 ft | 457 kts | 325° |
| 2026-04-30 22:33 | 27.12296 | -81.56063 | 30958 ft | 455 kts | 326° |
| 2026-04-30 22:34 | 27.20248 | -81.61794 | 32061 ft | 450 kts | 326° |
| 2026-04-30 22:35 | 27.25488 | -81.65586 | 32769 ft | 447 kts | 326° |
| 2026-04-30 22:36 | 27.35862 | -81.73100 | 34174 ft | 440 kts | 326° |
| 2026-04-30 22:36 | 27.38422 | -81.74955 | 34517 ft | 438 kts | 326° |
| 2026-04-30 22:37 | 27.46113 | -81.80443 | 35446 ft | 435 kts | 331° |
| 2026-04-30 22:37 | 27.48856 | -81.81857 | 35729 ft | 434 kts | 335° |
| 2026-04-30 22:37 | 27.54395 | -81.84543 | 35943 ft | 435 kts | 335° |
| 2026-04-30 22:38 | 27.59972 | -81.87253 | 35943 ft | 435 kts | 335° |
| 2026-04-30 22:39 | 27.68282 | -81.91307 | 35943 ft | 435 kts | 334° |
| 2026-04-30 22:40 | 27.84935 | -81.99463 | 35946 ft | 435 kts | 334° |
| 2026-04-30 22:41 | 27.98810 | -82.06264 | 35929 ft | 434 kts | 334° |
| 2026-04-30 22:42 | 28.09725 | -82.12055 | 35935 ft | 431 kts | 323° |
| 2026-04-30 22:43 | 28.14639 | -82.15984 | 35934 ft | 431 kts | 323° |
| 2026-04-30 22:44 | 28.24422 | -82.23795 | 35937 ft | 431 kts | 323° |
| 2026-04-30 22:45 | 28.39149 | -82.35580 | 35939 ft | 431 kts | 323° |
| 2026-04-30 22:47 | 28.53856 | -82.47396 | 35948 ft | 432 kts | 323° |
| 2026-04-30 22:48 | 28.63666 | -82.55293 | 35947 ft | 432 kts | 323° |
| 2026-04-30 22:49 | 28.78331 | -82.67154 | 35945 ft | 432 kts | 322° |
| 2026-04-30 22:51 | 28.92947 | -82.79011 | 35940 ft | 431 kts | 322° |
| 2026-04-30 22:52 | 28.99829 | -82.84605 | 35940 ft | 431 kts | 322° |
| 2026-04-30 22:53 | 29.09589 | -82.92546 | 35932 ft | 430 kts | 322° |
| 2026-04-30 22:53 | 29.16933 | -82.98554 | 35931 ft | 430 kts | 322° |
| 2026-04-30 22:55 | 29.29111 | -83.08503 | 35922 ft | 430 kts | 322° |
| 2026-04-30 22:56 | 29.38333 | -83.16086 | 35921 ft | 429 kts | 322° |
| 2026-04-30 22:57 | 29.50513 | -83.26093 | 35915 ft | 429 kts | 322° |
| 2026-04-30 22:58 | 29.60098 | -83.34005 | 35912 ft | 428 kts | 321° |
| 2026-04-30 22:59 | 29.74597 | -83.45999 | 35918 ft | 428 kts | 321° |